sensor_id;sensor_type;location;lat;lon;timestamp;pressure;altitude;pressure_sealevel;temperature;humidity
18918;BME280;9591;52.742;13.650;2022-12-07T00:00:29;100791.34;;;3.13;100.00
18918;BME280;9591;52.742;13.650;2022-12-07T00:03:43;100793.09;;;3.05;100.00
18918;BME280;9591;52.742;13.650;2022-12-07T00:07:18;100787.00;;;2.95;100.00
18918;BME280;9591;52.742;13.650;2022-12-07T00:11:05;100779.16;;;2.88;100.00
18918;BME280;9591;52.742;13.650;2022-12-07T00:14:06;100778.28;;;2.86;100.00
18918;BME280;9591;52.742;13.650;2022-12-07T00:16:59;100791.34;;;2.83;100.00
18918;BME280;9591;52.742;13.650;2022-12-07T00:19:48;100778.28;;;2.74;100.00
18918;BME280;9591;52.742;13.650;2022-12-07T00:22:37;100785.25;;;2.73;100.00
18918;BME280;9591;52.742;13.650;2022-12-07T00:25:24;100780.03;;;2.75;100.00
18918;BME280;9591;52.742;13.650;2022-12-07T00:28:11;100780.00;;;2.64;100.00
18918;BME280;9591;52.742;13.650;2022-12-07T00:31:15;100786.13;;;2.51;100.00
18918;BME280;9591;52.742;13.650;2022-12-07T00:34:03;100777.44;;;2.59;100.00
18918;BME280;9591;52.742;13.650;2022-12-07T00:36:50;100765.22;;;2.58;100.00
18918;BME280;9591;52.742;13.650;2022-12-07T00:39:46;100776.53;;;2.62;100.00
18918;BME280;9591;52.742;13.650;2022-12-07T00:42:33;100766.09;;;2.57;100.00
18918;BME280;9591;52.742;13.650;2022-12-07T00:45:45;100760.84;;;2.57;100.00
18918;BME280;9591;52.742;13.650;2022-12-07T00:48:35;100763.47;;;2.51;100.00
18918;BME280;9591;52.742;13.650;2022-12-07T00:51:30;100762.59;;;2.54;100.00
18918;BME280;9591;52.742;13.650;2022-12-07T00:54:45;100772.19;;;2.47;100.00
18918;BME280;9591;52.742;13.650;2022-12-07T00:57:58;100756.50;;;2.47;100.00
18918;BME280;9591;52.742;13.650;2022-12-07T01:00:48;100758.22;;;2.36;100.00
18918;BME280;9591;52.742;13.650;2022-12-07T01:03:41;100759.97;;;2.45;100.00
18918;BME280;9591;52.742;13.650;2022-12-07T01:06:27;100755.59;;;2.41;100.00
18918;BME280;9591;52.742;13.650;2022-12-07T01:09:14;100757.34;;;2.34;100.00
18918;BME280;9591;52.742;13.650;2022-12-07T01:12:01;100755.63;;;2.44;100.00
18918;BME280;9591;52.742;13.650;2022-12-07T01:14:48;100753.88;;;2.40;100.00
18918;BME280;9591;52.742;13.650;2022-12-07T01:17:35;100757.34;;;2.31;100.00
18918;BME280;9591;52.742;13.650;2022-12-07T01:20:23;100751.22;;;2.23;100.00
18918;BME280;9591;52.742;13.650;2022-12-07T01:23:10;100751.22;;;2.17;100.00
18918;BME280;9591;52.742;13.650;2022-12-07T01:25:57;100735.53;;;2.24;100.00
18918;BME280;9591;52.742;13.650;2022-12-07T01:28:44;100743.34;;;2.11;100.00
18918;BME280;9591;52.742;13.650;2022-12-07T01:31:30;100733.75;;;2.01;100.00
18918;BME280;9591;52.742;13.650;2022-12-07T01:34:17;100736.38;;;2.08;100.00
18918;BME280;9591;52.742;13.650;2022-12-07T01:37:05;100734.63;;;2.06;100.00
18918;BME280;9591;52.742;13.650;2022-12-07T01:39:52;100738.03;;;1.77;100.00
18918;BME280;9591;52.742;13.650;2022-12-07T01:42:39;100741.50;;;1.69;100.00
18918;BME280;9591;52.742;13.650;2022-12-07T01:45:44;100736.25;;;1.62;100.00
18918;BME280;9591;52.742;13.650;2022-12-07T01:48:32;100732.78;;;1.74;100.00
18918;BME280;9591;52.742;13.650;2022-12-07T01:51:21;100722.34;;;1.70;100.00
18918;BME280;9591;52.742;13.650;2022-12-07T01:54:11;100705.75;;;1.49;100.00
18918;BME280;9591;52.742;13.650;2022-12-07T01:56:59;100724.09;;;1.74;100.00
18918;BME280;9591;52.742;13.650;2022-12-07T01:59:48;100702.25;;;1.52;100.00
18918;BME280;9591;52.742;13.650;2022-12-07T02:02:39;100718.88;;;1.68;100.00
18918;BME280;9591;52.742;13.650;2022-12-07T02:05:27;100717.97;;;1.58;100.00
18918;BME280;9591;52.742;13.650;2022-12-07T02:08:15;100715.34;;;1.61;100.00
18918;BME280;9591;52.742;13.650;2022-12-07T02:11:06;100701.44;;;1.60;100.00
18918;BME280;9591;52.742;13.650;2022-12-07T02:13:53;100699.69;;;1.62;100.00
18918;BME280;9591;52.742;13.650;2022-12-07T02:16:49;100701.47;;;1.77;100.00
18918;BME280;9591;52.742;13.650;2022-12-07T02:20:18;100700.53;;;1.54;100.00
18918;BME280;9591;52.742;13.650;2022-12-07T02:27:05;100704.84;;;1.43;100.00
18918;BME280;9591;52.742;13.650;2022-12-07T02:30:00;100690.03;;;1.37;100.00
18918;BME280;9591;52.742;13.650;2022-12-07T02:32:53;100698.81;;;1.56;100.00
18918;BME280;9591;52.742;13.650;2022-12-07T02:35:47;100686.56;;;1.43;100.00
18918;BME280;9591;52.742;13.650;2022-12-07T02:38:42;100684.84;;;1.45;100.00
18918;BME280;9591;52.742;13.650;2022-12-07T02:41:34;100681.38;;;1.49;100.00
18918;BME280;9591;52.742;13.650;2022-12-07T02:44:25;100680.50;;;1.51;100.00
18918;BME280;9591;52.742;13.650;2022-12-07T02:47:17;100674.44;;;1.60;100.00
18918;BME280;9591;52.742;13.650;2022-12-07T02:50:07;100662.19;;;1.38;100.00
18918;BME280;9591;52.742;13.650;2022-12-07T02:52:54;100660.44;;;1.40;100.00
18918;BME280;9591;52.742;13.650;2022-12-07T02:55:41;100662.25;;;1.59;100.00
18918;BME280;9591;52.742;13.650;2022-12-07T02:58:34;100664.81;;;1.41;100.00
18918;BME280;9591;52.742;13.650;2022-12-07T03:01:30;100663.09;;;1.47;100.00
18918;BME280;9591;52.742;13.650;2022-12-07T03:04:30;100647.41;;;1.41;100.00
18918;BME280;9591;52.742;13.650;2022-12-07T03:07:26;100654.38;;;1.41;100.00
18918;BME280;9591;52.742;13.650;2022-12-07T03:10:19;100642.19;;;1.40;100.00
18918;BME280;9591;52.742;13.650;2022-12-07T03:13:11;100629.97;;;1.31;100.00
18918;BME280;9591;52.742;13.650;2022-12-07T03:16:05;100626.50;;;1.29;100.00
18918;BME280;9591;52.742;13.650;2022-12-07T03:18:57;100623.09;;;1.57;100.00
18918;BME280;9591;52.742;13.650;2022-12-07T03:21:47;100615.28;;;1.56;100.00
18918;BME280;9591;52.742;13.650;2022-12-07T03:24:39;100615.28;;;1.56;100.00
18918;BME280;9591;52.742;13.650;2022-12-07T03:27:31;100610.91;;;1.53;100.00
18918;BME280;9591;52.742;13.650;2022-12-07T03:30:20;100596.03;;;1.25;100.00
18918;BME280;9591;52.742;13.650;2022-12-07T03:33:11;100588.19;;;1.23;100.00
18918;BME280;9591;52.742;13.650;2022-12-07T03:36:04;100531.56;;;0.92;100.00
18918;BME280;9591;52.742;13.650;2022-12-07T03:38:58;100589.09;;;1.35;100.00
18918;BME280;9591;52.742;13.650;2022-12-07T03:41:47;100583.84;;;1.27;100.00
18918;BME280;9591;52.742;13.650;2022-12-07T03:44:35;100567.31;;;1.19;100.00
18918;BME280;9591;52.742;13.650;2022-12-07T03:47:27;100573.47;;;1.42;100.00
18918;BME280;9591;52.742;13.650;2022-12-07T03:50:22;100571.72;;;1.40;100.00
18918;BME280;9591;52.742;13.650;2022-12-07T03:53:15;100570.88;;;1.44;100.00
18918;BME280;9591;52.742;13.650;2022-12-07T03:56:07;100559.56;;;1.48;100.00
18918;BME280;9591;52.742;13.650;2022-12-07T03:58:54;100546.50;;;1.39;100.00
18918;BME280;9591;52.742;13.650;2022-12-07T04:01:43;100559.53;;;1.39;100.00
18918;BME280;9591;52.742;13.650;2022-12-07T04:04:30;100543.91;;;1.46;100.00
18918;BME280;9591;52.742;13.650;2022-12-07T04:07:18;100550.88;;;1.49;100.00
18918;BME280;9591;52.742;13.650;2022-12-07T04:10:06;100549.13;;;1.48;100.00
18918;BME280;9591;52.742;13.650;2022-12-07T04:12:55;100540.41;;;1.44;100.00
18918;BME280;9591;52.742;13.650;2022-12-07T04:15:42;100529.09;;;1.35;100.00
18918;BME280;9591;52.742;13.650;2022-12-07T04:18:29;100535.16;;;1.23;100.00
18918;BME280;9591;52.742;13.650;2022-12-07T04:21:17;100536.03;;;1.29;100.00
18918;BME280;9591;52.742;13.650;2022-12-07T04:24:04;100527.34;;;1.37;100.00
18918;BME280;9591;52.742;13.650;2022-12-07T04:26:51;100532.59;;;1.44;100.00
18918;BME280;9591;52.742;13.650;2022-12-07T04:29:39;100529.97;;;1.43;100.00
18918;BME280;9591;52.742;13.650;2022-12-07T04:32:26;100522.13;;;1.40;100.00
18918;BME280;9591;52.742;13.650;2022-12-07T04:35:13;100523.00;;;1.42;100.00
18918;BME280;9591;52.742;13.650;2022-12-07T04:38:00;100514.31;;;1.46;100.00
18918;BME280;9591;52.742;13.650;2022-12-07T04:40:46;100519.53;;;1.41;100.00
18918;BME280;9591;52.742;13.650;2022-12-07T04:43:34;100514.31;;;1.52;100.00
18918;BME280;9591;52.742;13.650;2022-12-07T04:46:22;100510.84;;;1.44;100.00
18918;BME280;9591;52.742;13.650;2022-12-07T04:49:09;100469.06;;;1.30;100.00
18918;BME280;9591;52.742;13.650;2022-12-07T04:51:56;100495.19;;;1.60;100.00
18918;BME280;9591;52.742;13.650;2022-12-07T04:54:42;100503.03;;;1.63;100.00
18918;BME280;9591;52.742;13.650;2022-12-07T04:57:29;100501.28;;;1.61;100.00
18918;BME280;9591;52.742;13.650;2022-12-07T05:00:16;100503.88;;;1.58;100.00
18918;BME280;9591;52.742;13.650;2022-12-07T05:03:05;100496.06;;;1.64;100.00
18918;BME280;9591;52.742;13.650;2022-12-07T05:05:51;100493.44;;;1.67;100.00
18918;BME280;9591;52.742;13.650;2022-12-07T05:08:39;100484.75;;;1.70;100.00
18918;BME280;9591;52.742;13.650;2022-12-07T05:11:26;100416.00;;;1.46;100.00
18918;BME280;9591;52.742;13.650;2022-12-07T05:14:25;100467.31;;;1.81;100.00
18918;BME280;9591;52.742;13.650;2022-12-07T05:17:11;100476.88;;;1.83;100.00
18918;BME280;9591;52.742;13.650;2022-12-07T05:20:00;100470.78;;;1.84;100.00
18918;BME280;9591;52.742;13.650;2022-12-07T05:22:47;100476.88;;;1.83;100.00
18918;BME280;9591;52.742;13.650;2022-12-07T05:25:34;100472.53;;;1.85;100.00
18918;BME280;9591;52.742;13.650;2022-12-07T05:28:21;100468.16;;;1.89;100.00
18918;BME280;9591;52.742;13.650;2022-12-07T05:31:08;100469.91;;;1.96;100.00
18918;BME280;9591;52.742;13.650;2022-12-07T05:33:55;100462.06;;;2.01;100.00
18918;BME280;9591;52.742;13.650;2022-12-07T05:36:43;100462.94;;;1.95;100.00
18918;BME280;9591;52.742;13.650;2022-12-07T05:39:30;100462.94;;;1.95;100.00
18918;BME280;9591;52.742;13.650;2022-12-07T05:42:17;100445.53;;;1.97;100.00
18918;BME280;9591;52.742;13.650;2022-12-07T05:45:04;100454.22;;;2.10;100.00
18918;BME280;9591;52.742;13.650;2022-12-07T05:47:51;100447.25;;;2.03;100.00
18918;BME280;9591;52.742;13.650;2022-12-07T05:50:38;100445.50;;;2.11;100.00
18918;BME280;9591;52.742;13.650;2022-12-07T05:53:26;100441.16;;;2.10;100.00
18918;BME280;9591;52.742;13.650;2022-12-07T05:56:14;100442.88;;;2.14;100.00
18918;BME280;9591;52.742;13.650;2022-12-07T05:59:00;100435.88;;;2.22;100.00
18918;BME280;9591;52.742;13.650;2022-12-07T06:02:06;100393.28;;;1.97;100.00
18918;BME280;9591;52.742;13.650;2022-12-07T06:04:53;100422.81;;;2.28;100.00
18918;BME280;9591;52.742;13.650;2022-12-07T06:07:40;100423.69;;;2.19;100.00
18918;BME280;9591;52.742;13.650;2022-12-07T06:10:28;100419.34;;;2.23;100.00
18918;BME280;9591;52.742;13.650;2022-12-07T06:13:15;100404.53;;;2.22;100.00
18918;BME280;9591;52.742;13.650;2022-12-07T06:16:01;100410.59;;;2.32;100.00
18918;BME280;9591;52.742;13.650;2022-12-07T06:18:48;100418.44;;;2.35;100.00
18918;BME280;9591;52.742;13.650;2022-12-07T06:21:34;100413.19;;;2.41;100.00
18918;BME280;9591;52.742;13.650;2022-12-07T06:24:22;100372.31;;;2.23;100.00
18918;BME280;9591;52.742;13.650;2022-12-07T06:27:10;100411.44;;;2.41;100.00
18918;BME280;9591;52.742;13.650;2022-12-07T06:29:56;100408.88;;;2.23;100.00
18918;BME280;9591;52.742;13.650;2022-12-07T06:32:43;100414.09;;;2.27;100.00
18918;BME280;9591;52.742;13.650;2022-12-07T06:35:32;100407.97;;;2.35;100.00
18918;BME280;9591;52.742;13.650;2022-12-07T06:38:19;100399.22;;;2.46;100.00
18918;BME280;9591;52.742;13.650;2022-12-07T06:41:06;100393.09;;;2.47;100.00
18918;BME280;9591;52.742;13.650;2022-12-07T06:43:54;100409.69;;;2.40;100.00
18918;BME280;9591;52.742;13.650;2022-12-07T06:46:40;100400.06;;;2.51;100.00
18918;BME280;9591;52.742;13.650;2022-12-07T06:49:27;100407.94;;;2.45;100.00
18918;BME280;9591;52.742;13.650;2022-12-07T06:52:14;100408.84;;;2.38;100.00
18918;BME280;9591;52.742;13.650;2022-12-07T06:55:01;100407.94;;;2.45;100.00
18918;BME280;9591;52.742;13.650;2022-12-07T06:57:48;100391.34;;;2.54;100.00
18918;BME280;9591;52.742;13.650;2022-12-07T07:00:36;100391.34;;;2.51;100.00
18918;BME280;9591;52.742;13.650;2022-12-07T07:03:22;100393.13;;;2.44;100.00
18918;BME280;9591;52.742;13.650;2022-12-07T07:06:10;100388.75;;;2.49;100.00
18918;BME280;9591;52.742;13.650;2022-12-07T07:08:57;100389.63;;;2.47;100.00
18918;BME280;9591;52.742;13.650;2022-12-07T07:11:44;100391.34;;;2.49;100.00
18918;BME280;9591;52.742;13.650;2022-12-07T07:14:30;100392.19;;;2.57;100.00
18918;BME280;9591;52.742;13.650;2022-12-07T07:17:19;100391.31;;;2.60;100.00
18918;BME280;9591;52.742;13.650;2022-12-07T07:20:07;100390.44;;;2.56;100.00
18918;BME280;9591;52.742;13.650;2022-12-07T07:22:54;100393.00;;;2.61;100.00
18918;BME280;9591;52.742;13.650;2022-12-07T07:25:41;100390.44;;;2.59;100.00
18918;BME280;9591;52.742;13.650;2022-12-07T07:28:28;100391.22;;;2.68;100.00
18918;BME280;9591;52.742;13.650;2022-12-07T07:31:15;100392.09;;;2.70;100.00
18918;BME280;9591;52.742;13.650;2022-12-07T07:34:03;100385.03;;;2.82;100.00
18918;BME280;9591;52.742;13.650;2022-12-07T07:36:50;100380.69;;;2.83;100.00
18918;BME280;9591;52.742;13.650;2022-12-07T07:39:36;100379.84;;;2.78;100.00
18918;BME280;9591;52.742;13.650;2022-12-07T07:42:23;100376.31;;;2.86;100.00
18918;BME280;9591;52.742;13.650;2022-12-07T07:45:10;100377.19;;;2.85;100.00
18918;BME280;9591;52.742;13.650;2022-12-07T07:47:57;100373.69;;;2.86;100.00
18918;BME280;9591;52.742;13.650;2022-12-07T07:50:45;100381.50;;;2.91;100.00
18918;BME280;9591;52.742;13.650;2022-12-07T07:53:32;100381.44;;;3.00;100.00
18918;BME280;9591;52.742;13.650;2022-12-07T07:56:19;100382.34;;;2.96;100.00
18918;BME280;9591;52.742;13.650;2022-12-07T07:59:06;100384.06;;;3.02;100.00
18918;BME280;9591;52.742;13.650;2022-12-07T08:01:52;100391.00;;;3.04;100.00
18918;BME280;9591;52.742;13.650;2022-12-07T08:04:40;100388.41;;;3.04;100.00
18918;BME280;9591;52.742;13.650;2022-12-07T08:07:29;100386.63;;;3.08;100.00
18918;BME280;9591;52.742;13.650;2022-12-07T08:10:16;100390.13;;;3.05;100.00
18918;BME280;9591;52.742;13.650;2022-12-07T08:13:03;100392.72;;;3.08;100.00
18918;BME280;9591;52.742;13.650;2022-12-07T08:16:03;100391.88;;;3.06;100.00
18918;BME280;9591;52.742;13.650;2022-12-07T08:18:50;100401.47;;;3.06;100.00
18918;BME280;9591;52.742;13.650;2022-12-07T08:21:37;100401.53;;;2.96;100.00
18918;BME280;9591;52.742;13.650;2022-12-07T08:24:25;100394.50;;;3.06;100.00
18918;BME280;9591;52.742;13.650;2022-12-07T08:27:12;100394.41;;;3.17;100.00
18918;BME280;9591;52.742;13.650;2022-12-07T08:29:58;100394.44;;;3.12;100.00
18918;BME280;9591;52.742;13.650;2022-12-07T08:32:47;100399.59;;;3.21;100.00
18918;BME280;9591;52.742;13.650;2022-12-07T08:35:33;100397.91;;;3.16;100.00
18918;BME280;9591;52.742;13.650;2022-12-07T08:38:20;100401.38;;;3.18;100.00
18918;BME280;9591;52.742;13.650;2022-12-07T08:41:14;100388.34;;;3.10;100.00
18918;BME280;9591;52.742;13.650;2022-12-07T08:44:01;100397.94;;;3.11;100.00
18918;BME280;9591;52.742;13.650;2022-12-07T08:46:50;100402.34;;;3.03;100.00
18918;BME280;9591;52.742;13.650;2022-12-07T08:49:41;100391.88;;;3.05;100.00
18918;BME280;9591;52.742;13.650;2022-12-07T08:52:31;100405.75;;;3.17;100.00
18918;BME280;9591;52.742;13.650;2022-12-07T08:55:18;100414.53;;;3.09;100.00
18918;BME280;9591;52.742;13.650;2022-12-07T08:58:07;100415.41;;;3.09;100.00
18918;BME280;9591;52.742;13.650;2022-12-07T09:00:54;100406.66;;;3.10;100.00
18918;BME280;9591;52.742;13.650;2022-12-07T09:03:41;100411.81;;;3.22;100.00
18918;BME280;9591;52.742;13.650;2022-12-07T09:06:28;100427.53;;;3.22;100.00
18918;BME280;9591;52.742;13.650;2022-12-07T09:09:15;100415.34;;;3.18;100.00
18918;BME280;9591;52.742;13.650;2022-12-07T09:12:02;100407.47;;;3.18;100.00
18918;BME280;9591;52.742;13.650;2022-12-07T09:14:50;100421.44;;;3.19;100.00
18918;BME280;9591;52.742;13.650;2022-12-07T09:17:37;100424.84;;;3.28;100.00
18918;BME280;9591;52.742;13.650;2022-12-07T09:20:24;100422.22;;;3.33;100.00
18918;BME280;9591;52.742;13.650;2022-12-07T09:23:12;100422.16;;;3.41;100.00
18918;BME280;9591;52.742;13.650;2022-12-07T09:25:59;100421.31;;;3.36;100.00
18918;BME280;9591;52.742;13.650;2022-12-07T09:28:54;100418.78;;;3.25;100.00
18918;BME280;9591;52.742;13.650;2022-12-07T09:31:42;100418.78;;;3.26;100.00
18918;BME280;9591;52.742;13.650;2022-12-07T09:34:30;100380.63;;;2.93;100.00
18918;BME280;9591;52.742;13.650;2022-12-07T09:37:17;100415.34;;;3.17;100.00
18918;BME280;9591;52.742;13.650;2022-12-07T09:40:05;100424.94;;;3.19;100.00
18918;BME280;9591;52.742;13.650;2022-12-07T09:42:54;100414.53;;;3.10;100.00
18918;BME280;9591;52.742;13.650;2022-12-07T09:45:42;100419.75;;;3.09;100.00
18918;BME280;9591;52.742;13.650;2022-12-07T09:48:36;100409.31;;;3.07;100.00
18918;BME280;9591;52.742;13.650;2022-12-07T09:51:24;100429.25;;;3.25;100.00
18918;BME280;9591;52.742;13.650;2022-12-07T09:54:13;100431.00;;;3.26;100.00
18918;BME280;9591;52.742;13.650;2022-12-07T09:57:00;100426.66;;;3.22;100.00
18918;BME280;9591;52.742;13.650;2022-12-07T09:59:46;100429.28;;;3.19;100.00
18918;BME280;9591;52.742;13.650;2022-12-07T10:02:36;100437.06;;;3.29;100.00
18918;BME280;9591;52.742;13.650;2022-12-07T10:05:27;100435.38;;;3.21;100.00
18918;BME280;9591;52.742;13.650;2022-12-07T10:08:15;100445.00;;;3.16;100.00
18918;BME280;9591;52.742;13.650;2022-12-07T10:11:02;100440.66;;;3.13;100.00
18918;BME280;9591;52.742;13.650;2022-12-07T10:13:51;100433.66;;;3.17;100.00
18918;BME280;9591;52.742;13.650;2022-12-07T10:16:40;100438.94;;;3.12;100.00
18918;BME280;9591;52.742;13.650;2022-12-07T10:19:30;100437.16;;;3.14;100.00
18918;BME280;9591;52.742;13.650;2022-12-07T10:22:18;100443.31;;;3.10;100.00
18918;BME280;9591;52.742;13.650;2022-12-07T10:25:09;100448.47;;;3.19;100.00
18918;BME280;9591;52.742;13.650;2022-12-07T10:28:12;100452.78;;;3.29;100.00
18918;BME280;9591;52.742;13.650;2022-12-07T10:31:01;100428.31;;;3.32;100.00
18918;BME280;9591;52.742;13.650;2022-12-07T10:33:51;100446.53;;;3.46;100.00
18918;BME280;9591;52.742;13.650;2022-12-07T10:36:38;100450.78;;;3.59;100.00
18918;BME280;9591;52.742;13.650;2022-12-07T10:39:26;100455.09;;;3.66;100.00
18918;BME280;9591;52.742;13.650;2022-12-07T10:42:18;100451.59;;;3.66;100.00
18918;BME280;9591;52.742;13.650;2022-12-07T10:45:12;100448.19;;;3.56;100.00
18918;BME280;9591;52.742;13.650;2022-12-07T10:48:06;100442.06;;;3.55;100.00
18918;BME280;9591;52.742;13.650;2022-12-07T10:51:05;100452.38;;;3.77;100.00
18918;BME280;9591;52.742;13.650;2022-12-07T10:54:01;100454.06;;;3.84;100.00
18918;BME280;9591;52.742;13.650;2022-12-07T10:57:01;100444.47;;;3.83;100.00
18918;BME280;9591;52.742;13.650;2022-12-07T11:00:01;100455.13;;;3.61;100.00
18918;BME280;9591;52.742;13.650;2022-12-07T11:03:14;100448.22;;;3.50;100.00
18918;BME280;9591;52.742;13.650;2022-12-07T11:06:16;100456.09;;;3.47;100.00
18918;BME280;9591;52.742;13.650;2022-12-07T11:09:40;100457.91;;;3.45;100.00
18918;BME280;9591;52.742;13.650;2022-12-07T11:13:04;100426.66;;;3.19;100.00
18918;BME280;9591;52.742;13.650;2022-12-07T11:16:02;100451.00;;;3.35;100.00
18918;BME280;9591;52.742;13.650;2022-12-07T11:18:59;100451.88;;;3.34;100.00
18918;BME280;9591;52.742;13.650;2022-12-07T11:21:56;100459.78;;;3.26;100.00
18918;BME280;9591;52.742;13.650;2022-12-07T11:24:48;100455.47;;;3.17;100.00
18918;BME280;9591;52.742;13.650;2022-12-07T11:27:39;100445.00;;;3.17;100.00
18918;BME280;9591;52.742;13.650;2022-12-07T11:30:34;100444.16;;;3.15;100.00
18918;BME280;9591;52.742;13.650;2022-12-07T11:33:29;100444.94;;;3.26;100.00
18918;BME280;9591;52.742;13.650;2022-12-07T11:36:31;100446.69;;;3.27;100.00
18918;BME280;9591;52.742;13.650;2022-12-07T11:39:26;100446.75;;;3.18;100.00
18918;BME280;9591;52.742;13.650;2022-12-07T11:42:16;100440.63;;;3.19;100.00
18918;BME280;9591;52.742;13.650;2022-12-07T11:45:13;100442.47;;;3.02;100.00
18918;BME280;9591;52.742;13.650;2022-12-07T11:48:04;100441.59;;;3.02;100.00
18918;BME280;9591;52.742;13.650;2022-12-07T11:50:57;100438.94;;;3.11;100.00
18918;BME280;9591;52.742;13.650;2022-12-07T11:53:46;100441.59;;;3.06;100.00
18918;BME280;9591;52.742;13.650;2022-12-07T11:56:35;100367.81;;;2.49;100.00
18918;BME280;9591;52.742;13.650;2022-12-07T11:59:27;100435.59;;;2.86;100.00
18918;BME280;9591;52.742;13.650;2022-12-07T12:02:22;100422.50;;;2.86;100.00
18918;BME280;9591;52.742;13.650;2022-12-07T12:05:17;100353.06;;;2.42;100.00
18918;BME280;9591;52.742;13.650;2022-12-07T12:08:12;100431.19;;;2.95;100.00
18918;BME280;9591;52.742;13.650;2022-12-07T12:11:31;100445.91;;;3.13;100.00
18918;BME280;9591;52.742;13.650;2022-12-07T12:14:39;100421.56;;;3.01;100.00
18918;BME280;9591;52.742;13.650;2022-12-07T12:17:42;100437.19;;;3.11;100.00
18918;BME280;9591;52.742;13.650;2022-12-07T12:20:41;100433.69;;;3.12;100.00
18918;BME280;9591;52.742;13.650;2022-12-07T12:23:36;100437.19;;;3.11;100.00
18918;BME280;9591;52.742;13.650;2022-12-07T12:26:27;100426.72;;;3.13;100.00
18918;BME280;9591;52.742;13.650;2022-12-07T12:29:22;100410.19;;;3.05;100.00
18918;BME280;9591;52.742;13.650;2022-12-07T12:32:15;100437.16;;;3.14;100.00
18918;BME280;9591;52.742;13.650;2022-12-07T12:35:22;100428.41;;;3.18;100.00
18918;BME280;9591;52.742;13.650;2022-12-07T12:38:29;100430.13;;;3.22;100.00
18918;BME280;9591;52.742;13.650;2022-12-07T12:45:20;100422.22;;;3.33;100.00
18918;BME280;9591;52.742;13.650;2022-12-07T12:48:28;100425.63;;;3.41;100.00
18918;BME280;9591;52.742;13.650;2022-12-07T12:51:35;100420.44;;;3.38;100.00
18918;BME280;9591;52.742;13.650;2022-12-07T12:54:25;100422.03;;;3.51;100.00
18918;BME280;9591;52.742;13.650;2022-12-07T12:57:17;100422.88;;;3.55;100.00
18918;BME280;9591;52.742;13.650;2022-12-07T13:00:17;100423.66;;;3.65;100.00
18918;BME280;9591;52.742;13.650;2022-12-07T13:03:03;100418.50;;;3.55;100.00
18918;BME280;9591;52.742;13.650;2022-12-07T13:06:18;100415.00;;;3.58;100.00
18918;BME280;9591;52.742;13.650;2022-12-07T13:09:18;100420.28;;;3.52;100.00
18918;BME280;9591;52.742;13.650;2022-12-07T13:12:13;100420.22;;;3.61;100.00
18918;BME280;9591;52.742;13.650;2022-12-07T13:15:01;100424.56;;;3.63;100.00
18918;BME280;9591;52.742;13.650;2022-12-07T13:18:00;100419.44;;;3.50;100.00
18918;BME280;9591;52.742;13.650;2022-12-07T13:20:51;100373.38;;;3.29;100.00
18918;BME280;9591;52.742;13.650;2022-12-07T13:23:52;100420.41;;;3.41;100.00
18918;BME280;9591;52.742;13.650;2022-12-07T13:26:42;100410.75;;;3.46;100.00
18918;BME280;9591;52.742;13.650;2022-12-07T13:29:36;100412.44;;;3.49;100.00
18918;BME280;9591;52.742;13.650;2022-12-07T13:32:24;100410.75;;;3.46;100.00
18918;BME280;9591;52.742;13.650;2022-12-07T13:35:31;100416.84;;;3.47;100.00
18918;BME280;9591;52.742;13.650;2022-12-07T13:38:24;100408.28;;;3.29;100.00
18918;BME280;9591;52.742;13.650;2022-12-07T13:41:13;100408.22;;;3.37;100.00
18918;BME280;9591;52.742;13.650;2022-12-07T13:44:02;100407.34;;;3.35;100.00
18918;BME280;9591;52.742;13.650;2022-12-07T13:46:59;100358.63;;;3.20;100.00
18918;BME280;9591;52.742;13.650;2022-12-07T13:49:48;100407.22;;;3.49;100.00
18918;BME280;9591;52.742;13.650;2022-12-07T13:52:43;100411.59;;;3.48;100.00
18918;BME280;9591;52.742;13.650;2022-12-07T13:55:32;100404.66;;;3.44;100.00
18918;BME280;9591;52.742;13.650;2022-12-07T13:58:19;100415.19;;;3.37;100.00
18918;BME280;9591;52.742;13.650;2022-12-07T14:01:06;100406.47;;;3.39;100.00
18918;BME280;9591;52.742;13.650;2022-12-07T14:03:54;100412.59;;;3.37;100.00
18918;BME280;9591;52.742;13.650;2022-12-07T14:06:48;100416.09;;;3.33;100.00
18918;BME280;9591;52.742;13.650;2022-12-07T14:09:35;100424.78;;;3.41;100.00
18918;BME280;9591;52.742;13.650;2022-12-07T14:12:21;100421.41;;;3.23;100.00
18918;BME280;9591;52.742;13.650;2022-12-07T14:15:20;100421.38;;;3.29;100.00
18918;BME280;9591;52.742;13.650;2022-12-07T14:18:27;100425.75;;;3.27;100.00
18918;BME280;9591;52.742;13.650;2022-12-07T14:21:18;100426.63;;;3.26;100.00
18918;BME280;9591;52.742;13.650;2022-12-07T14:24:15;100428.44;;;3.17;100.00
18918;BME280;9591;52.742;13.650;2022-12-07T14:27:03;100415.38;;;3.11;100.00
18918;BME280;9591;52.742;13.650;2022-12-07T14:29:50;100414.56;;;3.03;100.00
18918;BME280;9591;52.742;13.650;2022-12-07T14:32:37;100426.69;;;3.17;100.00
18918;BME280;9591;52.742;13.650;2022-12-07T14:35:25;100421.53;;;3.05;100.00
18918;BME280;9591;52.742;13.650;2022-12-07T14:38:13;100415.41;;;3.06;100.00
18918;BME280;9591;52.742;13.650;2022-12-07T14:41:00;100423.31;;;3.00;100.00
18918;BME280;9591;52.742;13.650;2022-12-07T14:44:01;100415.53;;;2.86;100.00
18918;BME280;9591;52.742;13.650;2022-12-07T14:47:08;100412.88;;;2.94;100.00
18918;BME280;9591;52.742;13.650;2022-12-07T14:50:17;100413.84;;;2.78;100.00
18918;BME280;9591;52.742;13.650;2022-12-07T14:53:09;100410.38;;;2.74;100.00
18918;BME280;9591;52.742;13.650;2022-12-07T14:56:14;100411.25;;;2.76;100.00
18918;BME280;9591;52.742;13.650;2022-12-07T14:59:00;100405.16;;;2.74;100.00
18918;BME280;9591;52.742;13.650;2022-12-07T15:01:47;100409.63;;;2.57;100.00
18918;BME280;9591;52.742;13.650;2022-12-07T15:04:34;100406.13;;;2.56;100.00